EPPO/POZ METAR and TAF weather

Enter ICAO airport designator
Station Type Date Time Source
EPPO METAR 2018/04/21 11:30 UTC NOAA

EPPO 211130Z 33010KT 290V350 9999 FEW043 22/10 Q1017


Station Type Date Time Source
EPPO Decoded METAR 2018/04/21 11:30 UTC NOAA

Poznan, Poland (EPPO) 52-25N 016-50E 92M
Apr 21, 2018 - 07:30 AM EDT / 2018.04.21 1130 UTC
Wind: from the NNW (330 degrees) at 12 MPH (10 KT) (direction variable):0
Visibility: greater than 7 mile(s):0
Sky conditions: mostly clear
Temperature: 71 F (22 C)
Dew Point: 50 F (10 C)
Relative Humidity: 46%
Pressure (altimeter): 30.03 in. Hg (1017 hPa)
ob: EPPO 211130Z 33010KT 290V350 9999 FEW043 22/10 Q1017
cycle: 11

Station Type Date Time Source
EPPO TAF 2018/04/21 12:35 UTC NOAA

TAF EPPO 211130Z 2112/2212 31010KT CAVOK
BECMG 2203/2206 25003KT


Example: see airport list